| time (UTC) | temp C | wind direction | speed KPH | gust KPH | rain 1hr cm | rain 24hr cm | rain mn cm | humidity % | barometer mb |
| 20260905182004 | 20 | 312 | 1.6 | 6.4 | 0.00 | 0.08 | 0.08 | 53 | 1020.2 |
| 20260905180026 | 20 | 319 | 1.6 | 12.9 | 0.00 | 0.08 | 0.08 | 52 | 1020.1 |
| 20260905174004 | 21 | 306 | 3.2 | 11.3 | 0.00 | 0.08 | 0.08 | 50 | 1019.7 |
| 20260905172004 | 21 | 314 | 4.8 | 12.9 | 0.00 | 0.08 | 0.08 | 48 | 1019.5 |
| 20260905170003 | 22 | 307 | 6.4 | 17.7 | 0.00 | 0.08 | 0.08 | 46 | 1019.4 |
| 20260905164004 | 22 | 314 | 8.0 | 19.3 | 0.00 | 0.08 | 0.08 | 44 | 1019.2 |
| 20260905162003 | 22 | 304 | 8.0 | 19.3 | 0.00 | 0.08 | 0.08 | 44 | 1019.2 |
| 20260905160004 | 22 | 315 | 9.7 | 30.6 | 0.00 | 0.08 | 0.08 | 44 | 1019.2 |
| 20260905154004 | 22 | 299 | 6.4 | 27.4 | 0.00 | 0.08 | 0.08 | 44 | 1019.3 |
| 20260905152004 | 23 | 300 | 11.3 | 25.7 | 0.00 | 0.08 | 0.08 | 41 | 1019.1 |
| 20260905150004 | 23 | 303 | 9.7 | 19.3 | 0.00 | 0.08 | 0.08 | 41 | 1019.1 |
| 20260905144004 | 23 | 305 | 9.7 | 24.1 | 0.00 | 0.08 | 0.08 | 42 | 1019.0 |
| 20260905142025 | 23 | 327 | 11.3 | 29.0 | 0.00 | 0.08 | 0.08 | 42 | 1019.1 |
| 20260905140025 | 23 | 300 | 14.5 | 25.7 | 0.00 | 0.08 | 0.08 | 42 | 1018.9 |
| 20260905134004 | 23 | 315 | 12.9 | 25.7 | 0.00 | 0.08 | 0.08 | 43 | 1018.9 |
| 20260905132004 | 24 | 302 | 9.7 | 20.9 | 0.00 | 0.08 | 0.08 | 45 | 1019.2 |
| 20260905130004 | 23 | 312 | 12.9 | 22.5 | 0.00 | 0.08 | 0.08 | 44 | 1018.9 |
| 20260905124003 | 23 | 315 | 11.3 | 24.1 | 0.00 | 0.08 | 0.08 | 44 | 1018.9 |
| 20260905122005 | 23 | 309 | 9.7 | 19.3 | 0.00 | 0.08 | 0.08 | 46 | 1019.1 |
| 20260905120004 | 23 | 297 | 8.0 | 19.3 | 0.00 | 0.08 | 0.08 | 47 | 1019.3 |
| 20260905114004 | 22 | 303 | 8.0 | 19.3 | 0.00 | 0.08 | 0.08 | 51 | 1019.2 |
| 20260905112003 | 22 | 299 | 9.7 | 19.3 | 0.00 | 0.08 | 0.08 | 52 | 1019.3 |
| 20260905110004 | 22 | 306 | 8.0 | 19.3 | 0.00 | 0.08 | 0.08 | 52 | 1019.4 |
| 20260905104026 | 22 | 297 | 8.0 | 19.3 | 0.00 | 0.08 | 0.08 | 57 | 1019.2 |
| 20260905102004 | 21 | 319 | 6.4 | 16.1 | 0.00 | 0.08 | 0.08 | 64 | 1019.4 |
| 20260905100003 | 20 | 308 | 4.8 | 16.1 | 0.00 | 0.08 | 0.08 | 70 | 1019.7 |
| 20260905094004 | 20 | 280 | 4.8 | 16.1 | 0.00 | 0.08 | 0.08 | 69 | 1019.7 |
| 20260905092005 | 19 | 290 | 4.8 | 14.5 | 0.00 | 0.08 | 0.08 | 74 | 1019.9 |
| 20260905090025 | 18 | 285 | 4.8 | 12.9 | 0.00 | 0.08 | 0.08 | 79 | 1020.1 |
| 20260905084025 | 17 | 323 | 1.6 | 6.4 | 0.00 | 0.08 | 0.08 | 82 | 1020.1 |
| 20260905082003 | 16 | 324 | 0.0 | 1.6 | 0.00 | 0.08 | 0.08 | 85 | 1020.2 |
| 20260905080005 | 15 | 324 | 1.6 | 8.0 | 0.00 | 0.08 | 0.08 | 86 | 1019.8 |
| 20260905074003 | 15 | 325 | 3.2 | 8.0 | 0.00 | 0.08 | 0.08 | 88 | 1019.1 |
| 20260905072003 | 15 | 327 | 4.8 | 12.9 | 0.00 | 0.08 | 0.08 | 87 | 1018.9 |
| 20260905070005 | 15 | 280 | 6.4 | 17.7 | 0.00 | 0.08 | 0.08 | 87 | 1017.7 |
| 20260905064003 | 15 | 297 | 4.8 | 14.5 | 0.00 | 0.08 | 0.08 | 84 | 1018.5 |
| 20260905062003 | 15 | 304 | 4.8 | 12.9 | 0.00 | 0.08 | 0.08 | 83 | 1019.4 |
| 20260905060004 | 15 | 314 | 6.4 | 16.1 | 0.03 | 0.08 | 0.08 | 83 | 1018.9 |
| 20260905054026 | 15 | 314 | 3.2 | 9.7 | 0.03 | 0.08 | 0.08 | 86 | 1018.7 |
| 20260905052004 | 15 | 314 | 0.0 | 4.8 | 0.03 | 0.08 | 0.08 | 88 | 1018.0 |
| 20260905050004 | 16 | 313 | 0.0 | 3.2 | 0.03 | 0.05 | 0.05 | 88 | 1018.2 |
| 20260905044004 | 16 | 313 | 0.0 | 1.6 | 0.05 | 0.05 | 0.05 | 87 | 1017.4 |
| 20260905042003 | 16 | 313 | 3.2 | 8.0 | 0.05 | 0.05 | 0.05 | 84 | 1017.0 |
| 20260905040004 | 18 | 311 | 4.8 | 14.5 | 0.05 | 0.05 | 0.05 | 76 | 1016.6 |
| 20260905034004 | 18 | 322 | 3.2 | 12.9 | 0.00 | 0.00 | 0.00 | 72 | 1016.3 |
| 20260905032005 | 19 | 326 | 8.0 | 22.5 | 0.00 | 0.00 | 0.00 | 65 | 1015.8 |
| 20260905030003 | 19 | 318 | 4.8 | 19.3 | 0.00 | 0.00 | 0.00 | 65 | 1015.3 |
| 20260905024003 | 20 | 324 | 3.2 | 12.9 | 0.00 | 0.00 | 0.00 | 64 | 1015.1 |
| 20260905022005 | 20 | 333 | 8.0 | 22.5 | 0.00 | 0.00 | 0.00 | 63 | 1015.1 |
| 20260905020003 | 20 | 334 | 6.4 | 22.5 | 0.00 | 0.00 | 0.00 | 63 | 1014.8 |
| 20260905014004 | 20 | 318 | 9.7 | 19.3 | 0.00 | 0.00 | 0.00 | 64 | 1014.8 |
| 20260905012003 | 21 | 339 | 8.0 | 29.0 | 0.00 | 0.00 | 0.00 | 64 | 1014.4 |
| 20260905010004 | 23 | 284 | 3.2 | 9.7 | 0.00 | 0.00 | 0.00 | 55 | 1013.5 |
| 20260905004004 | 23 | 279 | 1.6 | 6.4 | 0.00 | 0.00 | 0.00 | 56 | 1012.8 |
| 20260905002004 | 23 | 279 | 1.6 | 4.8 | 0.00 | 0.00 | 0.00 | 56 | 1012.6 |
| 20260905000004 | 23 | 280 | 1.6 | 6.4 | 0.00 | 0.00 | 0.00 | 55 | 1012.3 |
| 20260904234005 | 23 | 275 | 3.2 | 11.3 | 0.00 | 0.00 | 0.00 | 55 | 1012.3 |
| 20260904232025 | 23 | 263 | 1.6 | 9.7 | 0.00 | 0.00 | 0.00 | 56 | 1012.2 |
| 20260904230003 | 23 | 259 | 0.0 | 4.8 | 0.00 | 0.00 | 0.00 | 55 | 1012.1 |
| 20260904224003 | 23 | 255 | 0.0 | 3.2 | 0.00 | 0.00 | 0.00 | 56 | 1012.0 |
| 20260904222004 | 23 | 255 | 0.0 | 1.6 | 0.00 | 0.00 | 0.00 | 56 | 1012.1 |
| 20260904220004 | 23 | 255 | 0.0 | 3.2 | 0.00 | 0.00 | 0.00 | 54 | 1011.9 |
| 20260904214003 | 23 | 254 | 0.0 | 3.2 | 0.00 | 0.00 | 0.00 | 54 | 1011.9 |
| 20260904212025 | 23 | 250 | 1.6 | 4.8 | 0.00 | 0.00 | 0.00 | 54 | 1011.9 |
| 20260904210005 | 23 | 248 | 0.0 | 3.2 | 0.00 | 0.00 | 0.00 | 58 | 1012.0 |
| 20260904204003 | 22 | 248 | 0.0 | 1.6 | 0.00 | 0.00 | 0.00 | 62 | 1012.0 |
| 20260904202004 | 21 | 248 | 0.0 | 1.6 | 0.00 | 0.00 | 0.00 | 64 | 1012.2 |
| 20260904200004 | 20 | 0 | 0.0 | 0.0 | 0.00 | 0.00 | 0.00 | 70 | 1012.4 |
| 20260904194025 | 20 | 0 | 0.0 | 0.0 | 0.00 | 0.00 | 0.00 | 70 | 1012.5 |
| 20260904192003 | 20 | 0 | 0.0 | 0.0 | 0.00 | 0.00 | 0.00 | 69 | 1012.6 |
| 20260904190005 | 21 | 0 | 0.0 | 0.0 | 0.00 | 0.00 | 0.00 | 66 | 1012.7 |
| 20260904184003 | 22 | 0 | 0.0 | 0.0 | 0.00 | 0.00 | 0.00 | 63 | 1012.7 |